Black Star — 9HA2911 — position and weather

sailwx.info

Track history (hours):
 
Tides and Currents Weather Stations Pressure Air Temp Water Temp Dewpoint Dewpoint Depression Visibility Wind Speed Wind Dir Waves Ship Positions

Black Star

Last reported at 2015-Aug-30 02:28 UTC. Time now 2015-Aug-30 07:53 UTC.
Position N 40°20' W 009°57'.

Length 128 m; draft 7.2 m.

Type: Ship (hazmat cat B). MMSI: 256714000.

Date/timePositionNaut miles runAvg speedWind from/ knotsBaromVisibWave heightAir tempDewpointWater temp
2015-Aug-30 02:28N 40°20' W 009°57'1111.4
2015-Aug-30 01:32N 40°09' W 009°57'1111.2
2015-Aug-30 00:33N 39°58' W 009°57'1110.7
2015-Aug-29 23:33N 39°47' W 009°57'1110.8
2015-Aug-29 22:30N 39°36' W 009°56'1211.0
2015-Aug-29 21:26N 39°24' W 009°56'1010.8
2015-Aug-29 20:33N 39°15' W 009°56'1110.6
2015-Aug-29 19:33N 39°04' W 009°57'1010.4
2015-Aug-29 18:33N 38°54' W 009°56'1110.6
2015-Aug-29 17:33N 38°43' W 009°56'10 9.7
2015-Aug-29 16:33N 38°34' W 009°54'9 9.4
2015-Aug-29 15:33N 38°25' W 009°51'8 7.8
2015-Aug-29 14:33N 38°17' W 009°49'1010.0
2015-Aug-29 13:33N 38°07' W 009°45'1010.4
2015-Aug-29 12:33N 37°57' W 009°43'1110.6
2015-Aug-29 11:33N 37°47' W 009°40'1111.3
2015-Aug-29 10:33N 37°36' W 009°38'1110.6
2015-Aug-29 09:32N 37°25' W 009°34'1010.3
2015-Aug-29 08:32N 37°15' W 009°31'1010.6
2015-Aug-29 07:33N 37°05' W 009°28'1010.3
2015-Aug-29 06:33N 36°55' W 009°25'1010.3
2015-Aug-29 05:33N 36°46' W 009°18'1010.4
2015-Aug-29 04:33N 36°40' W 009°08'1111.2
2015-Aug-29 03:33N 36°37' W 008°54'1111.2
2015-Aug-29 02:33N 36°35' W 008°41'50410.9
2015-Aug-27 04:18N 36°52' E 001°47'37211.9
2015-Aug-25 21:08N 37°39' E 009°31'711.5
2015-Aug-25 20:33N 37°39' E 009°39'5611.1
2015-Aug-25 15:30N 37°32' E 010°49'1011.0
2015-Aug-25 14:33N 37°30' E 011°02'2311.3
2015-Aug-25 12:31N 37°20' E 011°28'4212.1
2015-Aug-25 09:04N 37°01' E 012°15'612.0
2015-Aug-25 08:33N 36°59' E 012°22'1212.0
2015-Aug-25 07:33N 36°56' E 012°37'1512.1
2015-Aug-25 06:21N 36°51' E 012°54'911.8
2015-Aug-25 05:33N 36°48' E 013°05'1211.9
2015-Aug-25 04:33N 36°44' E 013°19'1212.1
2015-Aug-25 03:33N 36°40' E 013°33'1212.2
2015-Aug-25 02:32N 36°35' E 013°48'1211.9
2015-Aug-25 01:33N 36°31' E 014°02'1212.1
2015-Aug-25 00:33N 36°27' E 014°16'1212.1
2015-Aug-24 23:33N 36°22' E 014°29'1211.9
2015-Aug-24 22:33N 36°17' E 014°43'1211.7
2015-Aug-24 21:33N 36°12' E 014°56'1111.1
2015-Aug-24 20:33N 36°11' E 015°10'1211.9
2015-Aug-24 19:33N 36°17' E 015°22'1211.6
2015-Aug-24 18:33N 36°20' E 015°36'44011.5
2015-Aug-23 04:11N 37°08' E 024°42'812.0
2015-Aug-23 03:31N 37°11' E 024°51'1212.7
2015-Aug-23 02:33N 37°15' E 025°05'1212.5
2015-Aug-23 01:33N 37°18' E 025°20'1212.3
2015-Aug-23 00:33N 37°21' E 025°35'1211.7
2015-Aug-22 23:33N 37°32' E 025°41'1212.1
2015-Aug-22 22:33N 37°44' E 025°41'  
Track history (hours):
 
Tides and Currents Weather Stations Pressure Air Temp Water Temp Dewpoint Dewpoint Depression Visibility Wind Speed Wind Dir Waves Ship Positions

Black Star

Last reported at 2015-Aug-30 02:28 UTC. Time now 2015-Aug-30 07:53 UTC.
Position N 40°20' W 009°57'.

Length 128 m; draft 7.2 m.

Type: Ship (hazmat cat B). MMSI: 256714000.

Date/timePositionNaut miles runAvg speedWind from/ knotsBaromVisibWave heightAir tempDewpointWater temp
2015-Aug-30 02:28N 40°20' W 009°57'1111.4
2015-Aug-30 01:32N 40°09' W 009°57'1111.2
2015-Aug-30 00:33N 39°58' W 009°57'1110.7
2015-Aug-29 23:33N 39°47' W 009°57'1110.8
2015-Aug-29 22:30N 39°36' W 009°56'1211.0
2015-Aug-29 21:26N 39°24' W 009°56'1010.8
2015-Aug-29 20:33N 39°15' W 009°56'1110.6
2015-Aug-29 19:33N 39°04' W 009°57'1010.4
2015-Aug-29 18:33N 38°54' W 009°56'1110.6
2015-Aug-29 17:33N 38°43' W 009°56'10 9.7
2015-Aug-29 16:33N 38°34' W 009°54'9 9.4
2015-Aug-29 15:33N 38°25' W 009°51'8 7.8
2015-Aug-29 14:33N 38°17' W 009°49'1010.0
2015-Aug-29 13:33N 38°07' W 009°45'1010.4
2015-Aug-29 12:33N 37°57' W 009°43'1110.6
2015-Aug-29 11:33N 37°47' W 009°40'1111.3
2015-Aug-29 10:33N 37°36' W 009°38'1110.6
2015-Aug-29 09:32N 37°25' W 009°34'1010.3
2015-Aug-29 08:32N 37°15' W 009°31'1010.6
2015-Aug-29 07:33N 37°05' W 009°28'1010.3
2015-Aug-29 06:33N 36°55' W 009°25'1010.3
2015-Aug-29 05:33N 36°46' W 009°18'1010.4
2015-Aug-29 04:33N 36°40' W 009°08'1111.2
2015-Aug-29 03:33N 36°37' W 008°54'1111.2
2015-Aug-29 02:33N 36°35' W 008°41'50410.9
2015-Aug-27 04:18N 36°52' E 001°47'37211.9
2015-Aug-25 21:08N 37°39' E 009°31'711.5
2015-Aug-25 20:33N 37°39' E 009°39'5611.1
2015-Aug-25 15:30N 37°32' E 010°49'1011.0
2015-Aug-25 14:33N 37°30' E 011°02'2311.3
2015-Aug-25 12:31N 37°20' E 011°28'4212.1
2015-Aug-25 09:04N 37°01' E 012°15'612.0
2015-Aug-25 08:33N 36°59' E 012°22'1212.0
2015-Aug-25 07:33N 36°56' E 012°37'1512.1
2015-Aug-25 06:21N 36°51' E 012°54'911.8
2015-Aug-25 05:33N 36°48' E 013°05'1211.9
2015-Aug-25 04:33N 36°44' E 013°19'1212.1
2015-Aug-25 03:33N 36°40' E 013°33'1212.2
2015-Aug-25 02:32N 36°35' E 013°48'1211.9
2015-Aug-25 01:33N 36°31' E 014°02'1212.1
2015-Aug-25 00:33N 36°27' E 014°16'1212.1
2015-Aug-24 23:33N 36°22' E 014°29'1211.9
2015-Aug-24 22:33N 36°17' E 014°43'1211.7
2015-Aug-24 21:33N 36°12' E 014°56'1111.1
2015-Aug-24 20:33N 36°11' E 015°10'1211.9
2015-Aug-24 19:33N 36°17' E 015°22'1211.6
2015-Aug-24 18:33N 36°20' E 015°36'44011.5
2015-Aug-23 04:11N 37°08' E 024°42'812.0
2015-Aug-23 03:31N 37°11' E 024°51'1212.7
2015-Aug-23 02:33N 37°15' E 025°05'1212.5
2015-Aug-23 01:33N 37°18' E 025°20'1212.3
2015-Aug-23 00:33N 37°21' E 025°35'1211.7
2015-Aug-22 23:33N 37°32' E 025°41'1212.1
2015-Aug-22 22:33N 37°44' E 025°41'  

Dump ship's entire track history